Time;durP1;ratioP1;P1;durP2;ratioP2;P2;SDS_P1;SDS_P2;PMS_P1;PMS_P2;Temp;Humidity;BMP_temperature;BMP_pressure;BME280_temperature;BME280_humidity;BME280_pressure;Samples;Min_cycle;Max_cycle;Signal;HPM_P1;HPM_P2
2023/07/24 00:00:39;;;;;;;3.13;1.90;;;;;;;19.01;100.00;100380.44;5272233;28;20068;-71
2023/07/24 00:03:10;;;;;;;4.37;2.13;;;;;;;19.03;100.00;100369.66;5272862;28;20032;-72
2023/07/24 00:05:42;;;;;;;3.13;2.47;;;;;;;18.96;100.00;100382.75;5254779;28;20055;-76
2023/07/24 00:08:13;;;;;;;4.17;2.37;;;;;;;18.90;100.00;100368.31;5254848;28;20056;-72
2023/07/24 00:10:44;;;;;;;3.70;2.50;;;;;;;18.97;100.00;100373.81;5273281;28;20020;-72
2023/07/24 00:13:15;;;;;;;3.53;2.17;;;;;;;18.99;100.00;100375.31;5272462;28;20398;-71
2023/07/24 00:15:47;;;;;;;6.33;2.70;;;;;;;18.96;100.00;100361.53;5272072;28;20032;-74
2023/07/24 00:18:18;;;;;;;4.07;2.30;;;;;;;18.96;100.00;100358.88;5272541;28;20028;-73
2023/07/24 00:20:49;;;;;;;8.10;2.60;;;;;;;18.91;100.00;100358.50;5272287;28;20389;-73
2023/07/24 00:23:21;;;;;;;5.97;2.47;;;;;;;18.93;100.00;100361.84;5262372;28;20075;-73
2023/07/24 00:25:53;;;;;;;5.90;3.10;;;;;;;19.00;100.00;100354.91;5270175;28;20080;-73
2023/07/24 00:28:24;;;;;;;4.63;2.30;;;;;;;19.01;100.00;100353.91;5266288;28;20049;-73
2023/07/24 00:30:58;;;;;;;4.00;3.13;;;;;;;18.99;100.00;100348.78;5271772;28;20106;-72
2023/07/24 00:33:29;;;;;;;;;;;;;;;19.41;100.00;100348.13;5273790;28;20036;-72
2023/07/24 00:36:01;;;;;;;4.83;2.60;;;;;;;19.02;100.00;100334.38;5266456;28;20869;-75
2023/07/24 00:38:32;;;;;;;5.00;2.93;;;;;;;19.06;100.00;100343.66;5265564;28;20105;-72
2023/07/24 00:41:03;;;;;;;5.93;3.03;;;;;;;19.03;100.00;100341.31;5258425;28;20109;-73
2023/07/24 00:43:35;;;;;;;3.50;2.80;;;;;;;18.96;100.00;100329.69;5255330;28;20101;-72
2023/07/24 00:46:06;;;;;;;6.43;3.10;;;;;;;18.90;100.00;100338.28;5258073;28;20467;-72
2023/07/24 00:48:38;;;;;;;4.40;2.77;;;;;;;18.86;100.00;100325.34;5272863;28;20031;-72
2023/07/24 00:51:10;;;;;;;4.50;3.20;;;;;;;18.99;100.00;100329.34;5273143;28;20032;-72
2023/07/24 00:53:42;;;;;;;5.70;3.33;;;;;;;18.98;100.00;100333.84;5245944;28;20036;-72
2023/07/24 00:56:13;;;;;;;4.70;3.47;;;;;;;18.97;100.00;100326.06;5274651;28;20025;-72
2023/07/24 00:58:44;;;;;;;8.33;3.80;;;;;;;18.88;100.00;100327.00;5277434;28;20148;-72
2023/07/24 01:01:19;;;;;;;8.97;3.80;;;;;;;18.94;100.00;100323.69;5275905;28;20028;-72
2023/07/24 01:03:51;;;;;;;5.53;4.23;;;;;;;18.91;100.00;100327.53;5277282;28;20083;-70
2023/07/24 01:06:23;;;;;;;8.20;4.13;;;;;;;18.88;100.00;100319.88;5258245;28;20068;-74
2023/07/24 01:08:55;;;;;;;8.07;4.57;;;;;;;18.81;100.00;100293.16;5277006;28;20463;-75
2023/07/24 01:11:47;;;;;;;7.60;3.63;;;;;;;19.13;100.00;100303.25;5273539;28;20032;-76
2023/07/24 01:15:08;;;;;;;8.17;4.37;;;;;;;19.15;100.00;100301.25;5268709;28;20111;-75
2023/07/24 01:17:47;;;;;;;6.13;4.00;;;;;;;18.91;100.00;100290.38;5246267;28;20088;-75
2023/07/24 01:20:19;;;;;;;8.13;3.97;;;;;;;18.88;100.00;100297.81;5275215;28;20020;-75
2023/07/24 01:23:14;;;;;;;5.97;4.20;;;;;;;19.01;100.00;100300.84;5276575;28;20039;-76
2023/07/24 01:25:57;;;;;;;9.47;5.13;;;;;;;19.04;100.00;100297.06;5259058;28;20046;-75
2023/07/24 01:28:29;;;;;;;6.33;4.53;;;;;;;18.86;100.00;100293.53;5276014;28;20020;-75
2023/07/24 01:31:00;;;;;;;6.77;4.50;;;;;;;18.91;100.00;100287.72;5275132;28;20102;-75
2023/07/24 01:33:33;;;;;;;13.13;5.63;;;;;;;18.90;100.00;100293.19;5276472;28;20025;-77
2023/07/24 01:36:07;;;;;;;14.10;5.35;;;;;;;18.88;100.00;100287.22;5276755;28;20031;-78
2023/07/24 01:38:39;;;;;;;19.65;6.05;;;;;;;18.85;100.00;100280.41;5275939;28;20029;-78
2023/07/24 01:41:11;;;;;;;8.77;5.23;;;;;;;18.84;100.00;100292.00;5276714;28;20024;-79
2023/07/24 01:43:43;;;;;;;9.93;4.77;;;;;;;18.84;100.00;100289.34;5258094;28;20028;-77
2023/07/24 01:46:14;;;;;;;9.53;6.57;;;;;;;18.81;100.00;100273.75;5275517;28;20020;-76
2023/07/24 01:48:46;;;;;;;6.90;5.43;;;;;;;18.85;100.00;100278.56;5276458;28;20039;-74
2023/07/24 01:51:17;;;;;;;9.47;6.40;;;;;;;18.79;100.00;100262.47;5276012;28;20025;-74
2023/07/24 01:53:49;;;;;;;9.43;5.87;;;;;;;18.78;100.00;100258.97;5262124;28;20463;-75
2023/07/24 01:56:20;;;;;;;7.57;4.87;;;;;;;18.81;100.00;100258.69;5276144;28;20036;-75
2023/07/24 01:58:51;;;;;;;6.53;4.90;;;;;;;18.81;100.00;100252.53;5275586;28;20078;-76
2023/07/24 02:01:23;;;;;;;6.23;4.63;;;;;;;18.80;100.00;100250.88;5261548;28;20106;-76
2023/07/24 02:03:54;;;;;;;7.60;4.77;;;;;;;18.80;100.00;100246.41;5258048;28;20021;-76
2023/07/24 02:06:25;;;;;;;8.23;4.70;;;;;;;18.79;100.00;100243.91;5261678;28;20478;-77
2023/07/24 02:08:56;;;;;;;5.20;4.20;;;;;;;18.73;100.00;100235.59;5275183;28;20041;-76
2023/07/24 02:11:28;;;;;;;5.23;3.83;;;;;;;18.84;100.00;100231.81;5257440;28;20538;-76
2023/07/24 02:13:59;;;;;;;6.80;3.80;;;;;;;18.84;100.00;100237.13;5275784;28;20044;-78
2023/07/24 02:16:30;;;;;;;6.57;3.50;;;;;;;18.76;100.00;100223.84;5274682;28;20074;-77
2023/07/24 02:19:02;;;;;;;5.63;4.37;;;;;;;18.84;100.00;100226.53;5274893;28;20123;-77
2023/07/24 02:21:33;;;;;;;7.47;4.23;;;;;;;18.83;100.00;100232.00;5275138;28;20430;-75
2023/07/24 02:24:04;;;;;;;8.73;4.20;;;;;;;18.85;100.00;100228.16;5257403;28;20119;-74
2023/07/24 02:26:36;;;;;;;5.47;4.07;;;;;;;18.82;100.00;100225.84;5257076;28;20116;-75
2023/07/24 02:29:07;;;;;;;6.57;4.20;;;;;;;18.82;100.00;100228.50;5257010;28;20454;-74
2023/07/24 02:31:38;;;;;;;5.87;4.50;;;;;;;18.88;100.00;100236.81;5264653;28;20529;-75
2023/07/24 02:34:10;;;;;;;6.60;4.67;;;;;;;18.90;100.00;100229.53;5261893;28;20047;-74
2023/07/24 02:36:41;;;;;;;7.03;5.20;;;;;;;18.88;100.00;100232.34;5275934;28;20031;-74
2023/07/24 02:39:12;;;;;;;8.60;5.33;;;;;;;18.85;100.00;100236.13;5275034;28;20029;-75
2023/07/24 02:41:44;;;;;;;6.27;5.30;;;;;;;18.87;100.00;100235.97;5244326;28;20059;-77
2023/07/24 02:44:15;;;;;;;7.33;5.30;;;;;;;18.89;100.00;100249.91;5273434;28;20039;-79
2023/07/24 02:46:46;;;;;;;8.67;5.40;;;;;;;18.86;100.00;100244.94;5275395;28;20028;-76
2023/07/24 02:49:18;;;;;;;10.00;5.80;;;;;;;18.74;100.00;100228.47;5274780;28;20376;-73
2023/07/24 02:51:50;;;;;;;7.43;4.37;;;;;;;18.79;100.00;100225.34;5256113;28;20545;-77
2023/07/24 02:54:21;;;;;;;5.37;4.50;;;;;;;18.78;100.00;100221.84;5257190;28;20134;-77
2023/07/24 02:56:52;;;;;;;6.97;4.70;;;;;;;18.77;100.00;100212.25;5274496;28;20028;-80
2023/07/24 02:59:24;;;;;;;6.43;4.23;;;;;;;18.74;100.00;100216.06;5274129;28;20024;-76
2023/07/24 03:01:55;;;;;;;5.80;3.70;;;;;;;18.77;100.00;100220.19;5274166;28;20120;-75
2023/07/24 03:04:26;;;;;;;6.13;4.57;;;;;;;18.80;100.00;100227.81;5274772;28;20038;-77
2023/07/24 03:06:58;;;;;;;6.13;3.83;;;;;;;18.71;100.00;100218.19;5274254;28;20144;-78
2023/07/24 03:09:29;;;;;;;5.37;3.47;;;;;;;18.65;100.00;100211.72;5249992;28;20028;-77
2023/07/24 03:12:00;;;;;;;6.13;3.17;;;;;;;18.64;100.00;100211.88;5274409;28;20024;-76
2023/07/24 03:14:32;;;;;;;4.20;3.40;;;;;;;18.61;100.00;100203.25;5273476;28;20036;-75
2023/07/24 03:17:03;;;;;;;4.57;3.30;;;;;;;18.60;100.00;100203.41;5263397;28;20112;-74
2023/07/24 03:19:34;;;;;;;7.17;3.10;;;;;;;18.56;100.00;100218.81;5274281;28;20070;-76
2023/07/24 03:22:06;;;;;;;7.73;3.50;;;;;;;18.53;100.00;100228.91;5273802;28;20032;-80
2023/07/24 03:24:37;;;;;;;8.40;3.37;;;;;;;18.51;100.00;100234.38;5256570;28;20079;-79
2023/07/24 03:27:08;;;;;;;5.53;2.97;;;;;;;18.48;100.00;100224.91;5273911;28;20593;-72
2023/07/24 03:29:40;;;;;;;4.43;3.17;;;;;;;18.45;100.00;100216.47;5255034;28;20519;-75
2023/07/24 03:32:12;;;;;;;5.23;3.30;;;;;;;18.42;100.00;100203.50;5273348;28;20025;-75
2023/07/24 03:34:43;;;;;;;5.47;2.53;;;;;;;18.36;100.00;100203.16;5270333;28;20655;-79
2023/07/24 03:37:14;;;;;;;4.23;3.43;;;;;;;18.35;100.00;100203.31;5271719;28;20039;-74
2023/07/24 03:39:46;;;;;;;5.27;2.97;;;;;;;18.41;100.00;100199.19;5256347;28;20051;-75
2023/07/24 03:42:27;;;;;;;3.57;2.80;;;;;;;18.51;100.00;100202.53;5274020;28;20473;-77
2023/07/24 03:44:59;;;;;;;3.80;2.43;;;;;;;18.33;100.00;100192.88;5268448;28;20063;-76
2023/07/24 03:47:30;;;;;;;3.83;3.13;;;;;;;18.33;100.00;100184.91;5271678;28;20100;-74
2023/07/24 03:50:02;;;;;;;5.13;3.13;;;;;;;18.34;100.00;100199.00;5273550;28;20043;-73
2023/07/24 03:52:33;;;;;;;6.70;2.93;;;;;;;18.22;100.00;100201.91;5274459;28;20068;-73
2023/07/24 03:55:05;;;;;;;4.93;3.57;;;;;;;18.16;100.00;100189.31;5252965;28;20031;-73
2023/07/24 03:57:36;;;;;;;4.20;3.60;;;;;;;18.23;100.00;100197.47;5274757;28;20111;-73
2023/07/24 04:00:08;;;;;;;4.40;3.40;;;;;;;18.33;100.00;100198.16;5254899;28;20468;-74
2023/07/24 04:02:39;;;;;;;4.03;2.90;;;;;;;18.33;100.00;100203.47;5262765;28;20111;-77
2023/07/24 04:05:11;;;;;;;4.93;3.53;;;;;;;18.28;100.00;100197.81;5277602;28;20048;-75
2023/07/24 04:07:42;;;;;;;3.80;3.40;;;;;;;18.16;100.00;100183.19;5259255;28;20021;-78
2023/07/24 04:10:13;;;;;;;5.63;3.30;;;;;;;18.29;100.00;100219.84;5273289;28;20438;-73
2023/07/24 04:12:45;;;;;;;5.70;3.20;;;;;;;18.30;100.00;100224.16;5257387;28;20035;-74
2023/07/24 04:15:16;;;;;;;5.70;3.77;;;;;;;18.32;100.00;100212.41;5273872;28;20031;-75
2023/07/24 04:17:47;;;;;;;4.43;3.23;;;;;;;18.32;100.00;100212.41;5274536;28;20064;-76
2023/07/24 04:20:19;;;;;;;4.17;3.57;;;;;;;18.34;100.00;100225.50;5270346;28;20036;-72
2023/07/24 04:22:50;;;;;;;4.77;3.60;;;;;;;18.29;100.00;100222.50;5274038;28;20036;-76
2023/07/24 04:25:21;;;;;;;6.60;3.97;;;;;;;18.29;100.00;100215.41;5273203;28;20025;-77
2023/07/24 04:27:53;;;;;;;6.80;4.37;;;;;;;18.25;100.00;100222.84;5273881;28;20071;-75
2023/07/24 04:30:24;;;;;;;4.00;3.20;;;;;;;18.20;100.00;100213.69;5272573;28;20047;-75
2023/07/24 04:32:55;;;;;;;4.83;3.53;;;;;;;18.16;100.00;100213.16;5273591;28;20041;-73
2023/07/24 04:35:27;;;;;;;4.57;3.90;;;;;;;18.16;100.00;100223.75;5255292;28;20025;-73
2023/07/24 04:37:58;;;;;;;7.93;3.40;;;;;;;18.16;100.00;100226.41;5273879;28;20074;-75
2023/07/24 04:40:29;;;;;;;6.50;4.63;;;;;;;18.18;100.00;100235.03;5274043;28;20035;-77
2023/07/24 04:43:01;;;;;;;3.87;3.33;;;;;;;18.10;100.00;100234.97;5254680;28;20506;-74
2023/07/24 04:45:33;;;;;;;5.73;4.00;;;;;;;18.14;100.00;100231.03;5272673;28;20039;-78
2023/07/24 04:48:04;;;;;;;4.33;3.50;;;;;;;18.14;100.00;100229.22;5273236;28;20051;-77
2023/07/24 04:50:36;;;;;;;3.63;3.30;;;;;;;18.01;100.00;100205.75;5273031;28;20028;-73
2023/07/24 04:53:07;;;;;;;5.47;4.50;;;;;;;18.00;100.00;100224.47;5273390;28;20035;-76
2023/07/24 04:55:38;;;;;;;3.87;3.47;;;;;;;18.02;100.00;100227.78;5259042;28;20109;-76
2023/07/24 04:58:10;;;;;;;5.97;4.27;;;;;;;18.04;100.00;100224.97;5255286;28;20028;-76
2023/07/24 05:00:41;;;;;;;5.87;3.83;;;;;;;18.05;100.00;100227.47;5272335;28;20035;-76
2023/07/24 05:03:12;;;;;;;4.43;3.90;;;;;;;18.06;100.00;100213.25;5273401;28;20108;-76
2023/07/24 05:05:47;;;;;;;5.13;4.10;;;;;;;18.13;100.00;100216.94;5272933;28;20045;-76
2023/07/24 05:08:19;;;;;;;7.73;4.00;;;;;;;17.97;100.00;100219.47;5272683;28;20027;-76
2023/07/24 05:10:55;;;;;;;5.10;3.90;;;;;;;18.04;100.00;100227.63;5273208;28;20040;-76
2023/07/24 05:13:26;;;;;;;4.93;4.30;;;;;;;18.02;100.00;100227.78;5264732;28;20021;-72
2023/07/24 05:15:58;;;;;;;6.03;4.40;;;;;;;17.96;100.00;100228.44;5266567;28;20043;-76
2023/07/24 05:18:29;;;;;;;4.80;4.13;;;;;;;17.99;100.00;100234.25;5273069;28;20039;-76
2023/07/24 05:21:01;;;;;;;5.97;4.00;;;;;;;17.96;100.00;100226.59;5272358;28;20033;-74
2023/07/24 05:23:32;;;;;;;4.87;3.63;;;;;;;18.06;100.00;100239.75;5265623;28;20029;-74
2023/07/24 05:26:03;;;;;;;4.73;3.87;;;;;;;18.03;100.00;100240.03;5248203;28;20040;-75
2023/07/24 05:28:35;;;;;;;5.23;4.47;;;;;;;18.01;100.00;100231.44;5273355;28;20030;-76
2023/07/24 05:31:07;;;;;;;4.93;3.63;;;;;;;18.00;100.00;100243.00;5271405;28;20056;-76
2023/07/24 05:33:39;;;;;;;5.60;4.57;;;;;;;17.90;100.00;100224.56;5272846;28;20119;-76
2023/07/24 05:36:10;;;;;;;5.97;4.97;;;;;;;17.89;100.00;100234.34;5262854;28;20055;-75
2023/07/24 05:38:41;;;;;;;7.23;6.03;;;;;;;18.01;100.00;100239.38;5269279;28;20068;-76
2023/07/24 05:41:13;;;;;;;6.10;5.20;;;;;;;17.88;100.00;100248.56;5276217;28;20086;-75
2023/07/24 05:43:44;;;;;;;6.10;5.57;;;;;;;18.01;100.00;100231.44;5275704;28;20090;-76
2023/07/24 05:46:15;;;;;;;5.73;5.13;;;;;;;18.13;100.00;100245.25;5268157;28;20029;-75
2023/07/24 05:48:47;;;;;;;6.33;5.73;;;;;;;18.12;100.00;100239.13;5270757;28;20552;-75
2023/07/24 05:51:18;;;;;;;6.07;5.20;;;;;;;18.16;100.00;100254.72;5258614;28;20048;-74
2023/07/24 05:53:49;;;;;;;6.10;5.50;;;;;;;18.14;100.00;100253.06;5275396;28;20083;-74
2023/07/24 05:56:21;;;;;;;5.83;5.00;;;;;;;18.16;100.00;100254.72;5263213;28;20127;-74
2023/07/24 05:58:52;;;;;;;6.90;5.50;;;;;;;18.24;100.00;100262.72;5275419;28;20363;-75
2023/07/24 06:01:23;;;;;;;6.73;6.03;;;;;;;18.09;100.00;100255.34;5275893;28;20054;-75
2023/07/24 06:03:55;;;;;;;6.70;6.10;;;;;;;18.24;100.00;100255.59;5276271;28;20502;-74
2023/07/24 06:06:27;;;;;;;9.30;6.00;;;;;;;18.13;100.00;100251.41;5275174;28;20048;-74
2023/07/24 06:08:59;;;;;;;8.20;6.40;;;;;;;18.29;100.00;100259.63;5258356;28;20237;-76
2023/07/24 06:11:30;;;;;;;7.10;6.50;;;;;;;18.32;100.00;100260.13;5257030;28;20036;-73
2023/07/24 06:14:01;;;;;;;6.97;5.87;;;;;;;18.32;100.00;100260.13;5261842;28;20033;-76
2023/07/24 06:16:33;;;;;;;7.67;6.40;;;;;;;18.30;100.00;100261.25;5275069;28;20028;-77
2023/07/24 06:19:04;;;;;;;8.20;6.03;;;;;;;18.34;100.00;100267.94;5257355;28;20029;-77
2023/07/24 06:21:35;;;;;;;6.70;5.40;;;;;;;18.27;100.00;100257.13;5276001;28;20029;-76
2023/07/24 06:24:11;;;;;;;6.57;5.87;;;;;;;18.35;100.00;100257.16;5273438;28;20121;-76
2023/07/24 06:26:43;;;;;;;6.03;5.53;;;;;;;18.50;100.00;100253.94;5272200;28;20648;-76
2023/07/24 06:29:14;;;;;;;7.03;6.33;;;;;;;18.58;100.00;100258.41;5265401;28;20033;-73
2023/07/24 06:31:45;;;;;;;7.83;5.03;;;;;;;18.78;100.00;100269.59;5275613;28;20098;-75
2023/07/24 06:34:17;;;;;;;6.17;5.07;;;;;;;18.78;100.00;100266.94;5275554;28;20028;-74
2023/07/24 06:36:48;;;;;;;5.83;5.23;;;;;;;18.78;100.00;100266.13;5261521;28;20068;-73
2023/07/24 06:39:20;;;;;;;6.47;5.67;;;;;;;18.73;100.00;100270.09;5269113;28;20108;-72
2023/07/24 06:41:55;;;;;;;6.93;4.73;;;;;;;18.82;100.00;100270.94;5261228;28;20035;-75
2023/07/24 06:44:26;;;;;;;5.20;4.70;;;;;;;18.76;100.00;100271.59;5274960;28;20024;-76
2023/07/24 06:46:57;;;;;;;5.40;4.90;;;;;;;18.73;100.00;100269.25;5256996;28;20035;-75
2023/07/24 06:49:29;;;;;;;6.10;4.63;;;;;;;18.68;100.00;100269.72;5268018;28;20063;-75
2023/07/24 06:52:00;;;;;;;5.67;4.63;;;;;;;18.66;100.00;100261.09;5266846;28;20463;-72
2023/07/24 06:54:32;;;;;;;5.80;5.00;;;;;;;18.61;100.00;100263.41;5242893;28;20054;-76
2023/07/24 06:57:03;;;;;;;5.40;4.63;;;;;;;18.65;100.00;100269.22;5275342;28;20127;-72
2023/07/24 06:59:34;;;;;;;6.17;4.60;;;;;;;18.62;100.00;100271.19;5274399;28;20056;-76
2023/07/24 07:02:06;;;;;;;7.30;4.43;;;;;;;18.59;100.00;100260.91;5262597;28;20043;-76
2023/07/24 07:04:37;;;;;;;5.30;4.23;;;;;;;18.54;100.00;100263.22;5273383;28;20036;-76
2023/07/24 07:07:08;;;;;;;5.20;4.47;;;;;;;18.61;100.00;100269.53;5274696;28;20045;-73
2023/07/24 07:09:39;;;;;;;5.27;4.47;;;;;;;18.61;100.00;100264.25;5274842;28;20439;-78
2023/07/24 07:12:11;;;;;;;5.00;4.50;;;;;;;18.66;100.00;100270.91;5263443;28;20053;-76
2023/07/24 07:14:42;;;;;;;6.13;4.60;;;;;;;18.56;100.00;100269.19;5253851;28;20387;-76
2023/07/24 07:17:13;;;;;;;4.73;4.30;;;;;;;18.58;100.00;100269.03;5274690;28;20029;-76
2023/07/24 07:19:45;;;;;;;5.60;4.23;;;;;;;18.55;100.00;100266.69;5275263;28;20443;-75
2023/07/24 07:22:16;;;;;;;4.17;3.77;;;;;;;18.56;100.00;100266.53;5245524;28;20118;-75
2023/07/24 07:24:47;;;;;;;4.80;4.17;;;;;;;18.47;100.00;100256.88;5271133;28;20025;-75
2023/07/24 07:27:19;;;;;;;3.20;2.80;;;;;;;18.48;100.00;100255.91;5256096;28;20518;-78
2023/07/24 07:29:50;;;;;;;4.23;2.80;;;;;;;18.43;100.00;100255.53;5272533;28;20079;-75
2023/07/24 07:32:21;;;;;;;4.60;2.90;;;;;;;18.48;100.00;100258.56;5250471;28;20070;-77
2023/07/24 07:34:53;;;;;;;3.47;2.77;;;;;;;18.54;100.00;100257.91;5266727;28;20076;-76
2023/07/24 07:37:24;;;;;;;3.27;2.87;;;;;;;19.08;100.00;100264.72;5270815;28;20035;-76
2023/07/24 07:39:55;;;;;;;3.53;3.00;;;;;;;19.95;100.00;100267.94;5258459;28;20078;-75
2023/07/24 07:42:26;;;;;;;4.00;3.20;;;;;;;20.51;100.00;100268.97;5260311;28;20020;-77
2023/07/24 07:44:58;;;;;;;3.05;2.45;;;;;;;20.51;100.00;100258.34;5274675;28;20064;-74
2023/07/24 07:47:29;;;;;;;3.42;2.60;;;;;;;20.70;100.00;100266.91;5256185;28;20031;-76
2023/07/24 07:50:00;;;;;;;4.40;2.78;;;;;;;20.90;100.00;100258.50;5255961;28;20044;-73
2023/07/24 07:52:32;;;;;;;4.07;3.40;;;;;;;20.97;100.00;100253.31;5256355;28;20021;-73
2023/07/24 07:55:06;;;;;;;3.85;2.60;;;;;;;20.97;100.00;100251.50;5274442;28;20137;-76
2023/07/24 07:57:37;;;;;;;3.17;2.72;;;;;;;20.88;100.00;100257.84;5274059;28;20071;-76
2023/07/24 08:00:10;;;;;;;3.30;2.65;;;;;;;20.76;100.00;100250.25;5273215;28;20025;-76
2023/07/24 08:02:41;;;;;;;4.05;3.65;;;;;;;20.64;100.00;100256.97;5269927;28;20029;-76
2023/07/24 08:05:12;;;;;;;3.75;2.90;;;;;;;21.02;100.00;100264.28;5263165;28;20032;-77
2023/07/24 08:07:44;;;;;;;4.28;3.38;;;;;;;20.80;100.00;100253.41;5274443;28;20017;-76
2023/07/24 08:10:16;;;;;;;5.82;3.90;;;;;;;20.73;100.00;100261.25;5273780;28;20553;-73
2023/07/24 08:12:47;;;;;;;7.18;3.40;;;;;;;20.97;100.00;100259.47;5252803;28;20135;-74
2023/07/24 08:15:19;;;;;;;5.07;3.72;;;;;;;21.14;100.00;100265.53;5261219;28;20501;-75
2023/07/24 08:17:50;;;;;;;4.63;3.85;;;;;;;21.44;100.00;100262.16;5273872;28;20064;-72
2023/07/24 08:20:21;;;;;;;5.22;3.53;;;;;;;21.25;100.00;100258.16;5273420;28;20095;-75
2023/07/24 08:22:53;;;;;;;6.43;3.70;;;;;;;21.19;100.00;100250.88;5259497;28;20057;-75
2023/07/24 08:25:24;;;;;;;8.07;4.43;;;;;;;21.03;100.00;100252.63;5273644;28;20025;-75
2023/07/24 08:27:55;;;;;;;5.88;3.90;;;;;;;20.93;100.00;100244.81;5273289;28;20075;-72
2023/07/24 08:30:26;;;;;;;6.78;4.18;;;;;;;20.98;100.00;100247.81;5254665;28;20471;-73
2023/07/24 08:32:58;;;;;;;7.18;4.80;;;;;;;20.88;100.00;100253.34;5273466;28;20074;-74
2023/07/24 08:35:30;;;;;;;8.02;4.60;;;;;;;20.87;100.00;100249.03;5273494;28;20130;-73
2023/07/24 08:38:01;;;;;;;5.82;4.78;;;;;;;20.87;100.00;100248.22;5273507;28;20025;-76
2023/07/24 08:40:33;;;;;;;6.10;4.45;;;;;;;20.72;100.00;100256.91;5259496;28;20017;-76
2023/07/24 08:43:04;;;;;;;6.65;4.38;;;;;;;20.67;100.00;100257.44;5273273;28;20119;-77
2023/07/24 08:45:37;;;;;;;5.38;4.80;;;;;;;20.78;100.00;100258.06;5272310;28;20067;-77
2023/07/24 08:48:09;;;;;;;9.73;4.88;;;;;;;20.63;100.00;100253.47;5273478;28;20029;-75
2023/07/24 08:50:41;;;;;;;5.68;4.13;;;;;;;20.54;100.00;100260.66;5273375;28;20030;-73
2023/07/24 08:53:13;;;;;;;5.53;4.53;;;;;;;20.64;100.00;100251.63;5273390;28;20020;-75
2023/07/24 08:55:49;;;;;;;8.63;4.60;;;;;;;20.72;100.00;100240.94;5273228;28;20032;-75
2023/07/24 08:58:20;;;;;;;5.20;4.53;;;;;;;20.62;100.00;100250.97;5271818;28;20123;-76
2023/07/24 09:00:51;;;;;;;6.05;5.00;;;;;;;20.65;100.00;100245.31;5273513;28;20405;-74
2023/07/24 09:03:23;;;;;;;5.55;4.75;;;;;;;20.76;100.00;100234.28;5272980;28;20032;-76
2023/07/24 09:05:54;;;;;;;9.45;5.15;;;;;;;20.76;100.00;100234.28;5273134;28;20052;-76
2023/07/24 09:08:37;;;;;;;10.60;5.50;;;;;;;20.90;100.00;100235.38;5272712;28;20467;-76
2023/07/24 09:11:10;;;;;;;4.90;4.00;;;;;;;20.61;100.00;100220.06;5254748;28;20605;-76
2023/07/24 09:13:42;;;;;;;5.72;4.95;;;;;;;20.95;100.00;100220.72;5262441;28;20064;-76
2023/07/24 09:16:25;;;;;;;5.65;5.00;;;;;;;21.50;100.00;100204.69;5273131;28;20032;-76
2023/07/24 09:18:57;;;;;;;7.38;4.80;;;;;;;21.63;100.00;100206.72;5258833;28;20028;-76
2023/07/24 09:21:30;;;;;;;6.22;4.88;;;;;;;22.21;100.00;100203.50;5272717;28;20452;-75
2023/07/24 09:24:14;;;;;;;6.10;4.45;;;;;;;22.53;100.00;100205.94;5266813;28;20598;-75
2023/07/24 09:26:48;;;;;;;;;;;;;;;22.93;100.00;100210.06;5277331;28;20024;-75
2023/07/24 09:29:20;;;;;;;5.85;5.00;;;;;;;22.12;100.00;100192.09;5257280;28;20378;-75
2023/07/24 09:31:51;;;;;;;4.68;4.28;;;;;;;22.01;100.00;100203.19;5262574;28;20029;-75
2023/07/24 09:34:23;;;;;;;7.55;3.95;;;;;;;21.97;100.00;100202.75;5276224;28;20025;-74
2023/07/24 09:36:54;;;;;;;4.97;4.05;;;;;;;21.79;100.00;100197.78;5275057;28;20033;-73
2023/07/24 09:39:26;;;;;;;5.45;3.75;;;;;;;21.83;100.00;100180.41;5263903;28;20025;-74
2023/07/24 09:42:04;;;;;;;5.72;3.40;;;;;;;21.86;100.00;100181.88;5276721;28;20039;-76
2023/07/24 09:44:36;;;;;;;3.22;2.92;;;;;;;21.70;100.00;100180.16;5257999;28;20020;-72
2023/07/24 09:47:07;;;;;;;3.30;3.00;;;;;;;21.69;100.00;100176.69;5262111;28;20036;-76
2023/07/24 09:49:39;;;;;;;5.15;3.15;;;;;;;21.64;100.00;100174.56;5276506;28;20032;-75
2023/07/24 09:52:12;;;;;;;3.35;2.78;;;;;;;21.41;100.00;100169.31;5276324;28;20025;-75
2023/07/24 09:54:58;;;;;;;4.90;2.63;;;;;;;21.52;100.00;100166.19;5268502;28;20090;-72
2023/07/24 09:57:31;;;;;;;3.33;2.88;;;;;;;21.32;100.00;100154.41;5253968;28;20582;-74
2023/07/24 10:00:03;;;;;;;2.90;2.45;;;;;;;21.01;100.00;100154.34;5275582;28;20031;-75
2023/07/24 10:02:36;;;;;;;3.50;3.20;;;;;;;21.19;100.00;100155.84;5257893;28;20077;-75
2023/07/24 10:05:07;;;;;;;4.72;3.20;;;;;;;21.08;100.00;100158.94;5276085;28;20928;-76
2023/07/24 10:07:39;;;;;;;4.18;2.78;;;;;;;21.07;100.00;100165.28;5275405;28;20076;-75
2023/07/24 10:10:10;;;;;;;3.53;2.70;;;;;;;20.95;100.00;100156.84;5276015;28;20119;-77
2023/07/24 10:12:42;;;;;;;4.68;3.33;;;;;;;21.05;100.00;100180.59;5255932;28;20556;-74
2023/07/24 10:15:14;;;;;;;5.05;3.42;;;;;;;20.98;100.00;100189.25;5254340;28;20108;-74
2023/07/24 10:17:45;;;;;;;3.95;3.55;;;;;;;20.93;100.00;100186.28;5271027;28;20028;-75
2023/07/24 10:20:17;;;;;;;3.95;3.38;;;;;;;20.76;100.00;100183.75;5276008;28;20029;-75
2023/07/24 10:22:49;;;;;;;5.60;3.70;;;;;;;20.71;100.00;100175.44;5261992;28;20035;-74
2023/07/24 10:25:30;;;;;;;5.15;3.90;;;;;;;20.95;100.00;100194.94;5275359;28;20028;-76
2023/07/24 10:28:10;;;;;;;6.18;3.28;;;;;;;20.75;100.00;100195.38;5274913;28;20050;-76
2023/07/24 10:30:42;;;;;;;4.43;3.53;;;;;;;20.63;100.00;100192.28;5275094;28;20036;-75
2023/07/24 10:33:19;;;;;;;4.38;3.80;;;;;;;20.79;100.00;100198.50;5275137;28;20028;-76
2023/07/24 10:36:02;;;;;;;6.22;3.97;;;;;;;20.67;100.00;100184.78;5275567;28;20413;-76
2023/07/24 10:38:36;;;;;;;5.45;3.17;;;;;;;20.64;100.00;100193.13;5275661;28;20032;-72
2023/07/24 10:41:10;;;;;;;5.88;3.67;;;;;;;20.77;100.00;100187.22;5274504;28;20036;-72
2023/07/24 10:43:51;;;;;;;3.05;2.75;;;;;;;20.79;100.00;100191.34;5274759;28;20035;-71
2023/07/24 10:46:22;;;;;;;4.50;3.58;;;;;;;20.67;100.00;100198.06;5274421;28;20045;-75
2023/07/24 10:48:54;;;;;;;4.72;3.00;;;;;;;20.70;100.00;100203.03;5275422;28;20028;-73
2023/07/24 10:51:25;;;;;;;5.88;4.20;;;;;;;20.66;100.00;100199.09;5274664;28;20111;-73
2023/07/24 10:53:56;;;;;;;3.67;3.35;;;;;;;20.88;100.00;100212.59;5275680;28;20024;-74
2023/07/24 10:56:28;;;;;;;4.15;3.03;;;;;;;20.91;100.00;100204.25;5273500;28;20047;-75
2023/07/24 10:59:04;;;;;;;4.05;3.67;;;;;;;21.00;100.00;100197.91;5274200;28;20026;-74
2023/07/24 11:01:35;;;;;;;5.25;3.60;;;;;;;20.94;100.00;100203.94;5274518;28;20024;-76
2023/07/24 11:04:07;;;;;;;4.10;3.70;;;;;;;20.95;100.00;100210.91;5256540;28;20021;-75
2023/07/24 11:06:39;;;;;;;3.95;3.55;;;;;;;21.08;100.00;100209.50;5275043;28;20044;-72
2023/07/24 11:09:11;;;;;;;4.88;3.30;;;;;;;21.14;100.00;100203.47;5274151;28;20152;-73
2023/07/24 11:11:42;;;;;;;4.85;4.30;;;;;;;21.28;100.00;100210.69;5275039;28;20115;-73
2023/07/24 11:14:14;;;;;;;4.10;3.70;;;;;;;21.43;100.00;100212.56;5273110;28;20035;-76
2023/07/24 11:16:49;;;;;;;6.28;4.65;;;;;;;21.52;100.00;100216.00;5273451;28;20090;-73
2023/07/24 11:19:26;;;;;;;8.13;4.85;;;;;;;21.57;100.00;100212.78;5256137;28;20429;-75
2023/07/24 11:21:58;;;;;;;5.40;4.40;;;;;;;21.35;100.00;100207.28;5246657;28;20028;-76
2023/07/24 11:24:30;;;;;;;5.63;4.57;;;;;;;21.42;100.00;100194.91;5275203;28;20017;-76
2023/07/24 11:27:10;;;;;;;5.82;4.53;;;;;;;21.62;100.00;100216.56;5250492;28;20028;-77
2023/07/24 11:29:48;;;;;;;6.72;4.30;;;;;;;21.69;100.00;100211.34;5274314;28;20032;-72
2023/07/24 11:32:20;;;;;;;6.32;4.45;;;;;;;21.52;100.00;100214.16;5275255;28;20038;-76
2023/07/24 11:34:52;;;;;;;4.90;4.30;;;;;;;21.46;100.00;100217.53;5262488;28;20025;-73
2023/07/24 11:37:24;;;;;;;5.00;4.45;;;;;;;21.41;100.00;100214.59;5272458;28;20029;-75
2023/07/24 11:40:04;;;;;;;4.38;3.97;;;;;;;21.52;100.00;100222.13;5256365;28;20031;-75